Time;durP1;ratioP1;P1;durP2;ratioP2;P2;SDS_P1;SDS_P2;PMS_P1;PMS_P2;Temp;Humidity;BMP_temperature;BMP_pressure;BME280_temperature;BME280_humidity;BME280_pressure;Samples;Min_cycle;Max_cycle;Signal;HPM_P1;HPM_P2
2021/03/01 00:03:04;;;;;;;22.10;8.68;;;;;;;-1.45;83.05;94158.66;5003566;28;20076;-96
2021/03/01 00:05:39;;;;;;;8.48;6.38;;;;;;;-1.35;82.70;94190.63;5001858;28;20050;-95
2021/03/01 00:08:06;;;;;;;14.40;5.72;;;;;;;-1.62;82.58;94150.63;5002172;28;20058;-94
2021/03/01 00:10:32;;;;;;;10.82;5.88;;;;;;;-1.71;81.98;94134.44;5002237;28;20109;-94
2021/03/01 00:12:59;;;;;;;11.13;5.68;;;;;;;-1.42;82.49;94183.63;5002618;28;20053;-96
2021/03/01 00:15:25;;;;;;;12.27;4.93;;;;;;;-1.45;82.33;94181.34;5002287;28;20122;-95
2021/03/01 00:17:52;;;;;;;11.88;7.45;;;;;;;-1.46;82.16;94184.75;5001195;28;20050;-95
2021/03/01 00:20:19;;;;;;;;;;;;;;;-1.36;82.33;94203.34;5002689;28;20058;-95
2021/03/01 00:22:46;;;;;;;10.82;4.82;;;;;;;-1.68;83.06;94173.72;5001934;28;20426;-95
2021/03/01 00:25:14;;;;;;;8.10;5.38;;;;;;;-1.91;83.74;94136.69;5001785;28;20080;-93
2021/03/01 00:27:41;;;;;;;10.57;6.22;;;;;;;-1.73;83.74;94174.06;5003032;28;20058;-95
2021/03/01 00:30:09;;;;;;;8.52;4.88;;;;;;;-2.49;84.38;94056.88;5003256;28;20046;-95
2021/03/01 00:32:37;;;;;;;10.10;5.63;;;;;;;-1.91;84.58;94146.75;5005134;28;20050;-96
2021/03/01 00:35:06;;;;;;;12.05;5.25;;;;;;;-1.85;84.69;94165.66;5004853;28;20058;-95
2021/03/01 00:37:33;;;;;;;5.25;4.50;;;;;;;-2.06;84.56;94118.47;5003220;28;20042;-95
2021/03/01 00:40:00;;;;;;;14.57;5.07;;;;;;;-1.95;84.49;94139.56;5002696;28;20054;-95
2021/03/01 00:42:26;;;;;;;9.85;4.43;;;;;;;-2.31;85.38;94109.34;5001536;28;20516;-94
2021/03/01 00:44:54;;;;;;;8.00;4.20;;;;;;;-2.38;85.27;94093.03;5000246;28;20109;-94
2021/03/01 00:47:31;;;;;;;;;;;;;;;;;;;;;
2021/03/01 00:49:58;;;;;;;10.50;6.22;;;;;;;-1.81;84.81;94154.44;5003442;28;20054;-95
2021/03/01 00:52:25;;;;;;;12.38;6.55;;;;;;;-1.89;85.72;94161.78;5004345;28;20129;-95
2021/03/01 01:43:18;;;;;;;10.00;2.92;;;;;;;-2.93;85.71;94001.25;4897649;29;20048;-96
2021/03/01 01:48:28;;;;;;;8.82;3.72;;;;;;;-2.91;85.58;94007.00;4897570;29;20073;-96
2021/03/01 01:50:55;;;;;;;6.60;4.25;;;;;;;-3.02;85.33;93990.13;4896073;29;20112;-96
2021/03/01 01:53:29;;;;;;;8.38;4.60;;;;;;;-3.01;85.25;94011.06;4895310;29;20064;-96
2021/03/01 01:55:58;;;;;;;5.45;3.30;;;;;;;-3.01;85.82;94004.28;4896221;29;20061;-96
2021/03/01 01:58:25;;;;;;;6.93;3.95;;;;;;;-3.04;85.01;94002.00;4893604;29;20072;-95
2021/03/01 02:00:52;;;;;;;7.57;4.05;;;;;;;-2.77;85.32;94056.31;4894575;29;20489;-96
2021/03/01 02:03:43;;;;;;;8.82;4.07;;;;;;;-2.44;85.58;94104.34;4893714;29;20121;-95
2021/03/01 02:06:18;;;;;;;6.60;3.42;;;;;;;-3.14;86.75;94009.38;4890048;29;20060;-96
2021/03/01 02:08:57;;;;;;;18.00;6.25;;;;;;;-3.20;86.66;94009.00;4893178;29;20531;-95
2021/03/01 02:11:38;;;;;;;7.57;5.15;;;;;;;-2.96;86.94;94037.47;4891214;29;20057;-95
2021/03/01 02:14:15;;;;;;;5.60;3.17;;;;;;;-2.47;87.11;94100.34;4891026;29;20053;-96
2021/03/01 02:16:43;;;;;;;18.30;5.78;;;;;;;-3.05;86.67;94019.72;4892161;29;20053;-96
2021/03/01 02:19:12;;;;;;;18.20;8.02;;;;;;;-3.48;88.26;93994.09;4894527;29;20059;-96
2021/03/01 02:21:44;;;;;;;10.38;6.10;;;;;;;-3.54;89.34;93986.97;4896343;29;20056;-94
2021/03/01 02:24:13;;;;;;;10.30;7.22;;;;;;;-3.45;89.18;93998.09;4894241;29;20053;-95
2021/03/01 02:26:42;;;;;;;10.35;4.28;;;;;;;-2.94;89.10;94059.97;4891672;29;20063;-94
2021/03/01 02:29:13;;;;;;;10.02;4.47;;;;;;;-2.93;88.14;94055.78;4889725;29;20053;-94
2021/03/01 02:31:45;;;;;;;10.75;4.78;;;;;;;-2.89;87.28;94047.09;4891395;29;20049;-95
2021/03/01 02:34:16;;;;;;;15.85;7.40;;;;;;;-3.27;86.84;93984.31;4893149;29;20084;-95
2021/03/01 02:36:47;;;;;;;14.25;6.60;;;;;;;-2.73;86.36;94069.47;4894203;29;20053;-94
2021/03/01 02:39:17;;;;;;;13.63;6.18;;;;;;;-3.28;86.09;93989.44;4892876;29;20112;-95
2021/03/01 02:41:46;;;;;;;14.50;6.25;;;;;;;-3.22;86.49;93991.50;4892459;29;20057;-95
2021/03/01 02:44:13;;;;;;;18.13;6.43;;;;;;;-2.32;86.26;94127.88;4891994;29;20147;-95
2021/03/01 02:46:41;;;;;;;17.23;4.88;;;;;;;-2.76;86.06;94054.59;4891161;29;20121;-95
2021/03/01 02:49:09;;;;;;;4.57;3.70;;;;;;;-2.36;85.43;94116.41;4890310;29;20060;-95
2021/03/01 02:51:39;;;;;;;13.50;6.85;;;;;;;-2.30;85.83;94119.25;4872334;29;20057;-94
2021/03/01 02:54:26;;;;;;;11.93;6.13;;;;;;;-2.27;85.76;94115.72;4870976;29;20113;-95
2021/03/01 02:56:53;;;;;;;8.95;5.80;;;;;;;-2.60;85.76;94066.91;4870755;29;20520;-94
2021/03/01 02:59:23;;;;;;;10.10;5.93;;;;;;;-2.49;85.91;94093.81;4870846;29;20056;-95
2021/03/01 03:01:50;;;;;;;5.82;3.30;;;;;;;-3.05;85.31;94009.66;4869588;29;20053;-95
2021/03/01 03:04:20;;;;;;;5.93;4.72;;;;;;;-2.60;84.64;94079.47;4870269;29;20068;-94
2021/03/01 03:06:48;;;;;;;5.05;3.10;;;;;;;-3.26;85.08;93990.13;4869832;29;20052;-95
2021/03/01 03:09:15;;;;;;;6.47;4.35;;;;;;;-2.90;86.34;94058.06;4869981;29;20068;-94
2021/03/01 03:11:44;;;;;;;4.85;3.53;;;;;;;-3.12;85.67;94027.66;4869741;29;20136;-94
2021/03/01 03:14:14;;;;;;;6.95;3.63;;;;;;;-3.10;85.10;94047.69;4870994;29;20082;-95
2021/03/01 03:16:41;;;;;;;23.17;4.38;;;;;;;-2.81;85.45;94082.56;4870255;29;20109;-96
2021/03/01 03:19:10;;;;;;;8.05;5.07;;;;;;;-3.58;85.50;93975.53;4872556;29;20082;-94
2021/03/01 03:21:36;;;;;;;10.15;5.03;;;;;;;-2.72;85.06;94129.69;4874564;29;20061;-94
2021/03/01 03:24:07;;;;;;;5.72;3.85;;;;;;;-3.68;85.69;93971.16;4875438;29;20136;-95
2021/03/01 03:26:34;;;;;;;7.20;2.72;;;;;;;-3.56;86.19;93992.09;4876343;29;20412;-96
2021/03/01 03:29:02;;;;;;;3.80;2.92;;;;;;;-2.97;86.28;94085.31;4874409;29;20057;-95
2021/03/01 03:31:29;;;;;;;6.13;3.65;;;;;;;-3.08;86.21;94060.94;4873753;29;20125;-93
2021/03/01 03:33:55;;;;;;;6.55;4.22;;;;;;;-2.92;86.18;94090.06;4874382;29;20063;-95
2021/03/01 03:36:26;;;;;;;7.72;3.08;;;;;;;-3.02;86.79;94070.56;4874303;29;20074;-95
2021/03/01 03:38:57;;;;;;;5.82;3.70;;;;;;;-3.01;86.43;94086.47;4872398;29;20061;-95
2021/03/01 03:41:27;;;;;;;7.85;4.60;;;;;;;-3.20;86.89;94061.78;4872062;29;20421;-96
2021/03/01 03:43:55;;;;;;;5.13;3.30;;;;;;;-3.33;87.33;94032.47;4871414;29;20057;-94
2021/03/01 03:46:27;;;;;;;4.63;3.70;;;;;;;-2.81;87.53;94117.78;4871124;29;20085;-94
2021/03/01 03:48:54;;;;;;;6.88;4.38;;;;;;;-3.01;87.08;94067.13;4870532;29;20059;-95
2021/03/01 03:51:22;;;;;;;12.65;4.72;;;;;;;-2.83;86.42;94104.47;4870831;29;20432;-94
2021/03/01 03:53:50;;;;;;;16.77;6.05;;;;;;;-3.12;86.29;94052.81;4871372;29;20054;-94
2021/03/01 03:56:22;;;;;;;9.73;5.07;;;;;;;-3.08;86.54;94078.53;4871876;29;20054;-95
2021/03/01 03:58:55;;;;;;;9.43;5.32;;;;;;;-3.40;86.71;94044.63;4872749;29;20065;-95
2021/03/01 04:01:24;;;;;;;10.98;6.07;;;;;;;-3.22;87.18;94082.78;4871818;29;20461;-94
2021/03/01 04:03:52;;;;;;;10.10;7.00;;;;;;;-3.26;88.33;94073.84;4870787;29;20053;-95
2021/03/01 04:06:21;;;;;;;10.50;5.63;;;;;;;-3.39;88.24;94053.75;4870357;29;20061;-95
2021/03/01 04:08:50;;;;;;;17.85;4.57;;;;;;;-3.37;88.38;94044.41;4870424;29;20520;-95
2021/03/01 04:11:20;;;;;;;15.38;5.25;;;;;;;-3.02;87.70;94094.91;4868915;29;20160;-95
2021/03/01 04:13:49;;;;;;;9.00;4.85;;;;;;;-2.97;87.11;94105.44;4870423;29;20762;-95
2021/03/01 04:16:16;;;;;;;8.65;4.75;;;;;;;-3.24;86.45;94056.94;4870500;29;20053;-95
2021/03/01 04:18:47;;;;;;;6.22;3.97;;;;;;;-3.06;86.14;94078.44;4870746;29;20390;-94
2021/03/01 04:21:15;;;;;;;6.55;3.88;;;;;;;-3.52;85.90;94018.63;4870259;29;20088;-95
2021/03/01 04:23:44;;;;;;;6.03;3.13;;;;;;;-3.19;86.61;94071.72;4869693;29;20057;-95
2021/03/01 04:26:11;;;;;;;5.07;4.05;;;;;;;-3.43;85.98;94049.84;4869237;29;20057;-95
2021/03/01 04:28:39;;;;;;;7.55;4.10;;;;;;;-3.35;86.31;94054.34;4868738;29;20064;-94
2021/03/01 04:31:08;;;;;;;11.18;3.97;;;;;;;-3.22;85.24;94080.28;4868649;29;20086;-94
2021/03/01 04:33:36;;;;;;;6.70;5.15;;;;;;;-3.17;85.94;94099.25;4868874;29;20061;-95
2021/03/01 04:36:06;;;;;;;10.43;7.38;;;;;;;-3.37;86.49;94059.47;4869797;29;20061;-95
2021/03/01 04:38:33;;;;;;;11.65;6.75;;;;;;;-3.25;86.30;94079.66;4869821;29;20053;-94
2021/03/01 04:41:00;;;;;;;16.90;7.65;;;;;;;-3.14;86.32;94094.03;4870058;29;20053;-96
2021/03/01 04:43:28;;;;;;;7.65;4.95;;;;;;;-3.01;87.91;94107.34;4870636;29;20082;-94
2021/03/01 04:45:57;;;;;;;9.60;5.30;;;;;;;-3.46;87.16;94039.22;4871785;29;20076;-95
2021/03/01 04:48:25;;;;;;;9.48;5.25;;;;;;;-3.94;86.29;93967.88;4873875;29;20501;-95
2021/03/01 04:50:53;;;;;;;10.93;5.30;;;;;;;-3.73;86.42;93985.72;4873529;29;20072;-96
2021/03/01 04:53:22;;;;;;;7.80;4.35;;;;;;;-3.21;85.31;94073.53;4874483;29;20104;-95
2021/03/01 04:55:52;;;;;;;9.73;2.63;;;;;;;-4.01;85.60;93964.97;4872076;29;20057;-96
2021/03/01 04:58:21;;;;;;;8.77;3.45;;;;;;;-3.37;85.51;94068.75;4857887;29;20061;-95
2021/03/01 05:01:01;;;;;;;5.57;3.08;;;;;;;-4.11;85.91;93957.25;4875505;29;20064;-95
2021/03/01 05:03:29;;;;;;;24.45;8.70;;;;;;;-3.70;86.22;94032.41;4872025;29;20053;-95
2021/03/01 05:05:58;;;;;;;15.55;6.43;;;;;;;-4.00;86.67;93989.16;4869767;29;20057;-94
2021/03/01 05:08:27;;;;;;;7.88;5.50;;;;;;;-3.65;85.52;94038.72;4872041;29;20401;-95
2021/03/01 05:10:56;;;;;;;11.20;5.78;;;;;;;-3.74;86.94;94028.50;4875369;29;20066;-95
2021/03/01 05:13:26;;;;;;;15.82;7.30;;;;;;;-4.20;86.16;93981.25;4877335;29;20086;-95
2021/03/01 05:19:00;;;;;;;;;;;;;;;-3.21;87.35;94121.28;4882298;29;20078;-96
2021/03/01 05:21:36;;;;;;;4.68;3.58;;;;;;;-3.66;87.92;94062.22;4883783;29;19924;-95
2021/03/01 05:24:05;;;;;;;10.23;6.72;;;;;;;-3.59;87.31;94064.34;4882306;29;20056;-95
2021/03/01 05:32:12;;;;;;;4.32;3.28;;;;;;;-4.04;86.99;93981.03;4884073;29;20041;-96
2021/03/01 05:34:39;;;;;;;6.07;3.45;;;;;;;-3.47;86.65;94075.28;4899027;29;20132;-94
2021/03/01 05:37:07;;;;;;;6.82;4.20;;;;;;;-3.53;85.67;94052.19;4896681;29;20086;-95
2021/03/01 05:39:36;;;;;;;4.75;3.35;;;;;;;-3.40;85.64;94077.28;4907419;29;20056;-95
2021/03/01 05:42:04;;;;;;;5.90;5.35;;;;;;;-3.53;85.87;94069.75;4919375;29;20068;-95
2021/03/01 05:44:35;;;;;;;9.88;5.60;;;;;;;-4.03;87.48;94000.19;4915921;29;20067;-96
2021/03/01 05:47:04;;;;;;;7.03;2.97;;;;;;;-4.06;88.17;93987.06;4918036;29;20054;-95
2021/03/01 05:49:35;;;;;;;5.43;3.60;;;;;;;-3.95;88.91;93991.34;4915224;29;20064;-95
2021/03/01 05:52:02;;;;;;;16.80;8.50;;;;;;;-3.43;87.71;94059.91;4914311;29;20053;-95
2021/03/01 05:57:20;;;;;;;5.03;4.20;;;;;;;-2.78;86.70;94126.81;4916982;29;20052;-96
2021/03/01 06:02:38;;;;;;;17.60;8.02;;;;;;;-2.33;85.24;94142.16;5336078;23;20040;-96
2021/03/01 06:05:16;;;;;;;9.07;6.82;;;;;;;-3.05;85.96;94012.16;5117422;23;20059;-96
2021/03/01 06:10:20;;;;;;;14.38;6.47;;;;;;;-2.46;85.27;94045.81;5252459;23;20416;-96
2021/03/01 06:12:47;;;;;;;18.13;7.32;;;;;;;-2.24;84.22;94046.75;4914309;29;20116;-95
2021/03/01 06:15:15;;;;;;;14.68;7.30;;;;;;;-2.10;84.25;94055.84;4915182;29;20066;-96
2021/03/01 06:17:41;;;;;;;17.08;8.60;;;;;;;-2.15;83.32;93993.25;4908096;29;20048;-95
2021/03/01 06:20:10;;;;;;;17.10;8.05;;;;;;;-1.36;82.74;94082.38;4908406;29;20056;-95
2021/03/01 06:22:42;;;;;;;15.20;8.63;;;;;;;-1.63;82.14;94003.69;4909015;29;20052;-96
2021/03/01 06:25:12;;;;;;;14.90;8.48;;;;;;;-1.12;80.95;94046.94;4909720;29;20060;-96
2021/03/01 06:28:00;;;;;;;11.73;5.75;;;;;;;-1.24;80.62;93982.34;4913362;29;20124;-95
2021/03/01 06:30:29;;;;;;;12.68;6.40;;;;;;;-0.33;80.14;94095.59;4908744;29;20056;-96
2021/03/01 06:33:07;;;;;;;8.95;6.10;;;;;;;-0.21;80.67;94073.63;4908110;29;20056;-96
2021/03/01 06:35:36;;;;;;;18.80;8.43;;;;;;;-0.08;79.62;94040.63;4906290;29;20052;-95
2021/03/01 06:38:14;;;;;;;12.77;6.20;;;;;;;0.47;78.44;94090.09;4905081;29;20053;-95
2021/03/01 06:40:41;;;;;;;15.85;7.82;;;;;;;0.71;77.84;94099.16;4904715;29;20048;-96
2021/03/01 06:43:13;;;;;;;19.42;9.25;;;;;;;0.92;77.68;94096.56;4904847;29;20484;-96
2021/03/01 06:45:39;;;;;;;26.70;12.70;;;;;;;0.80;77.72;94055.38;4904487;29;20053;-95
2021/03/01 06:48:06;;;;;;;22.55;8.18;;;;;;;1.18;77.37;94088.50;4904913;29;20052;-96
2021/03/01 06:50:34;;;;;;;12.48;6.90;;;;;;;1.17;75.66;94038.03;4904402;29;20058;-96
2021/03/01 06:53:03;;;;;;;18.88;8.10;;;;;;;1.76;74.60;94086.16;4905085;29;20056;-95
2021/03/01 06:55:30;;;;;;;12.48;6.53;;;;;;;1.67;73.93;94039.63;4906271;29;20163;-95
2021/03/01 06:57:57;;;;;;;15.25;6.85;;;;;;;2.17;71.80;94072.53;4907108;29;20104;-94
2021/03/01 07:00:27;;;;;;;9.90;5.43;;;;;;;2.15;72.46;94029.56;4906752;29;20068;-95
2021/03/01 07:02:55;;;;;;;12.68;6.13;;;;;;;2.80;70.97;94101.56;4906731;29;20048;-95
2021/03/01 07:05:22;;;;;;;16.33;7.25;;;;;;;2.70;68.99;94045.00;4906176;29;20089;-95
2021/03/01 07:07:49;;;;;;;24.65;10.70;;;;;;;3.28;69.00;94102.28;4907123;29;20138;-96
2021/03/01 07:10:16;;;;;;;17.52;10.25;;;;;;;3.04;66.93;94037.63;4906198;29;20056;-93
2021/03/01 07:12:45;;;;;;;18.48;8.88;;;;;;;3.63;67.00;94115.19;4905418;29;20055;-95
2021/03/01 07:15:13;;;;;;;19.95;8.60;;;;;;;3.78;67.14;94119.75;4905096;29;20060;-95
2021/03/01 07:17:42;;;;;;;20.00;9.13;;;;;;;3.51;67.02;94056.16;4904086;29;20069;-95
2021/03/01 07:20:11;;;;;;;11.15;6.72;;;;;;;3.27;66.57;94044.03;4904143;29;20075;-94
2021/03/01 07:22:39;;;;;;;10.75;6.18;;;;;;;3.64;64.40;94076.13;4904499;29;20071;-96
2021/03/01 07:25:07;;;;;;;9.23;5.30;;;;;;;3.69;65.39;94068.88;4904515;29;20543;-94
2021/03/01 07:27:38;;;;;;;9.48;6.07;;;;;;;3.71;65.89;94079.69;4905126;29;20427;-94
2021/03/01 07:30:06;;;;;;;29.20;14.30;;;;;;;3.88;65.86;94110.31;4905946;29;20056;-95
2021/03/01 07:32:33;;;;;;;12.27;6.25;;;;;;;3.94;66.46;94103.88;4904607;29;20048;-94
2021/03/01 07:35:01;;;;;;;8.77;4.80;;;;;;;3.71;67.18;94072.06;4903872;29;20060;-95
2021/03/01 07:37:28;;;;;;;9.13;5.43;;;;;;;4.35;63.54;94121.97;4904188;29;20057;-94
2021/03/01 07:39:54;;;;;;;7.50;4.53;;;;;;;4.10;62.93;94082.84;4903510;29;20048;-93
2021/03/01 07:42:22;;;;;;;21.80;6.70;;;;;;;4.24;63.08;94123.00;4904448;29;20049;-95
2021/03/01 07:44:53;;;;;;;8.10;5.18;;;;;;;4.65;62.93;94116.59;4903825;29;20056;-96
2021/03/01 07:47:26;;;;;;;8.70;4.20;;;;;;;4.45;60.27;94093.09;4904141;29;20048;-95
2021/03/01 07:49:52;;;;;;;7.80;4.07;;;;;;;4.39;60.63;94110.56;4904420;29;20045;-94
2021/03/01 07:52:42;;;;;;;;;;;;;;;4.52;62.04;94124.63;4904715;29;20048;-94
2021/03/01 07:55:11;;;;;;;6.30;3.90;;;;;;;4.86;61.55;94112.88;4883551;29;19930;-93
2021/03/01 07:57:40;;;;;;;7.82;4.85;;;;;;;4.64;60.96;94061.56;4902552;29;20498;-94
2021/03/01 08:00:24;;;;;;;7.93;4.82;;;;;;;4.86;61.34;94095.06;4901489;29;20457;-95
2021/03/01 08:02:50;;;;;;;5.63;4.13;;;;;;;4.52;60.28;94079.63;4901501;29;20103;-93
2021/03/01 08:05:23;;;;;;;9.50;5.53;;;;;;;4.49;62.40;94057.03;4901053;29;20061;-94
2021/03/01 08:07:50;;;;;;;8.38;3.75;;;;;;;4.72;59.70;94074.31;4901579;29;20060;-94
2021/03/01 08:10:20;;;;;;;7.70;4.32;;;;;;;5.35;60.52;94081.72;4901094;29;20053;-93
2021/03/01 08:12:59;;;;;;;7.32;3.85;;;;;;;5.41;57.15;94034.44;4901418;29;20056;-95
2021/03/01 08:15:31;;;;;;;5.28;3.65;;;;;;;5.96;58.59;94081.47;4901936;29;20103;-95
2021/03/01 08:17:58;;;;;;;10.52;3.83;;;;;;;6.33;57.54;94066.66;4900949;29;20060;-93
2021/03/01 08:20:33;;;;;;;5.97;3.95;;;;;;;6.73;54.50;94078.69;4901475;29;20053;-93
2021/03/01 08:23:20;;;;;;;22.42;9.23;;;;;;;7.21;56.04;94088.91;4900691;29;20052;-94
2021/03/01 08:25:52;;;;;;;6.10;3.78;;;;;;;7.28;52.48;94082.19;4900694;29;20060;-92
2021/03/01 08:28:43;;;;;;;11.75;4.10;;;;;;;7.30;54.23;94099.88;4918167;29;20048;-95
2021/03/01 08:31:38;;;;;;;8.57;3.38;;;;;;;7.48;54.27;94099.63;4919276;29;20055;-94
2021/03/01 08:34:24;;;;;;;7.22;4.75;;;;;;;7.93;53.38;94094.75;4919494;29;20088;-95
2021/03/01 08:36:51;;;;;;;8.30;4.03;;;;;;;7.79;51.86;94045.13;4920108;29;20056;-94
2021/03/01 08:40:01;;;;;;;8.20;5.05;;;;;;;7.70;52.01;94079.38;4919650;29;20052;-94
2021/03/01 08:45:51;;;;;;;10.27;5.75;;;;;;;7.49;52.93;94032.19;4917945;29;20064;-93
2021/03/01 08:48:19;;;;;;;11.32;5.10;;;;;;;7.64;52.40;94036.59;4919789;29;20056;-95
2021/03/01 08:50:49;;;;;;;10.32;4.65;;;;;;;7.68;52.60;94064.19;4919529;29;20052;-94
2021/03/01 08:53:21;;;;;;;15.95;7.15;;;;;;;7.40;52.26;94074.13;4919382;29;20100;-95
2021/03/01 08:55:48;;;;;;;10.05;5.05;;;;;;;7.80;52.34;94091.94;4921989;29;20048;-93
2021/03/01 08:58:16;;;;;;;6.72;3.95;;;;;;;7.26;51.28;94088.41;4921078;29;20052;-94
2021/03/01 09:00:55;;;;;;;6.20;3.22;;;;;;;7.13;52.80;94053.19;4918931;29;20052;-94
2021/03/01 09:03:26;;;;;;;7.95;4.55;;;;;;;7.13;53.22;94020.75;4919367;29;20392;-95
2021/03/01 09:05:55;;;;;;;10.43;5.65;;;;;;;7.82;51.60;94059.31;4919510;29;20056;-95
2021/03/01 09:08:33;;;;;;;8.57;5.20;;;;;;;8.09;51.71;94075.09;4918981;29;20071;-95
2021/03/01 09:11:01;;;;;;;11.55;3.95;;;;;;;8.13;52.57;94079.72;4918644;29;20064;-94
2021/03/01 09:13:28;;;;;;;6.63;3.28;;;;;;;8.39;51.29;94080.28;4918965;29;20052;-93
2021/03/01 09:15:56;;;;;;;7.20;4.32;;;;;;;8.16;51.47;94017.94;4917797;29;20060;-93
2021/03/01 09:18:28;;;;;;;7.55;4.20;;;;;;;8.55;50.22;94071.69;4918614;29;20067;-93
2021/03/01 09:20:56;;;;;;;5.82;3.65;;;;;;;8.10;49.82;94020.41;4921077;29;20139;-94
2021/03/01 09:23:47;;;;;;;7.68;3.72;;;;;;;8.14;50.55;94006.28;4923338;29;20055;-94
2021/03/01 09:26:25;;;;;;;8.05;3.53;;;;;;;8.16;50.37;93996.69;4919096;29;20052;-92
2021/03/01 09:28:53;;;;;;;5.53;2.97;;;;;;;8.16;48.77;94070.88;4918536;29;20111;-92
2021/03/01 09:31:20;;;;;;;6.63;3.55;;;;;;;7.41;50.68;94050.16;4918180;29;20048;-93
2021/03/01 09:33:47;;;;;;;6.72;4.35;;;;;;;7.66;51.55;94034.66;4918325;29;20052;-94
2021/03/01 09:36:14;;;;;;;6.80;3.13;;;;;;;8.32;50.69;94067.38;4918027;29;20055;-94
2021/03/01 09:38:41;;;;;;;4.68;3.10;;;;;;;8.46;48.45;94053.00;4917835;29;20091;-94
2021/03/01 09:41:10;;;;;;;8.38;2.85;;;;;;;8.46;47.49;94012.03;4918344;29;20062;-93
2021/03/01 09:43:38;;;;;;;4.70;2.88;;;;;;;7.52;47.27;93990.97;4918664;29;20048;-94
2021/03/01 09:46:05;;;;;;;5.05;3.40;;;;;;;7.55;48.32;94043.53;4918167;29;20051;-94
2021/03/01 09:48:36;;;;;;;8.80;3.80;;;;;;;7.70;49.57;94020.56;4918675;29;20059;-93
2021/03/01 09:51:03;;;;;;;5.55;3.08;;;;;;;7.86;50.92;94014.50;4918126;29;20048;-94
2021/03/01 09:53:30;;;;;;;8.50;4.07;;;;;;;8.31;49.22;94014.59;4917834;29;20176;-94
2021/03/01 09:55:56;;;;;;;8.13;3.65;;;;;;;8.97;45.69;94053.31;4918180;29;20052;-94
2021/03/01 09:58:33;;;;;;;7.78;3.08;;;;;;;8.99;47.23;94041.91;4917833;29;20503;-94
2021/03/01 10:01:07;;;;;;;6.57;2.83;;;;;;;8.85;43.72;94046.09;4913685;29;20147;-94
2021/03/01 10:03:39;;;;;;;3.95;2.38;;;;;;;8.47;44.80;94064.06;4898382;29;20934;-94
2021/03/01 10:06:06;;;;;;;5.03;3.42;;;;;;;7.03;44.71;94032.94;4899025;29;20074;-94
2021/03/01 10:08:33;;;;;;;3.58;2.25;;;;;;;6.39;45.25;93963.16;4899131;29;20063;-94
2021/03/01 10:11:00;;;;;;;4.03;2.65;;;;;;;7.34;44.63;94007.38;4899087;29;20159;-94
2021/03/01 10:13:28;;;;;;;10.48;3.13;;;;;;;7.84;43.68;94062.50;4899448;29;20162;-93
2021/03/01 10:15:56;;;;;;;6.97;2.85;;;;;;;7.68;41.57;94027.63;4898801;29;20056;-94
2021/03/01 10:18:27;;;;;;;6.90;3.53;;;;;;;7.69;42.43;94053.00;4899435;29;20115;-95
2021/03/01 10:21:01;;;;;;;6.07;2.88;;;;;;;7.26;42.54;94024.53;4899497;29;20053;-95
2021/03/01 10:23:32;;;;;;;7.63;3.03;;;;;;;6.84;42.53;93962.66;4899174;29;20116;-94
2021/03/01 10:26:07;;;;;;;3.10;1.42;;;;;;;7.56;44.72;94034.88;4899138;29;20086;-94
2021/03/01 10:28:35;;;;;;;4.15;2.05;;;;;;;7.69;44.03;94017.19;4899087;29;20063;-94
2021/03/01 10:31:05;;;;;;;3.47;1.88;;;;;;;7.86;41.68;94027.28;4899587;29;20488;-91
2021/03/01 10:33:31;;;;;;;4.43;2.20;;;;;;;7.84;40.84;94024.94;4898528;29;20052;-95
2021/03/01 10:36:10;;;;;;;2.58;1.20;;;;;;;7.82;39.91;94000.50;4898718;29;20487;-94
2021/03/01 10:38:59;;;;;;;4.90;2.05;;;;;;;8.34;41.16;94062.88;4898215;29;20060;-94
2021/03/01 10:41:28;;;;;;;3.28;2.05;;;;;;;8.04;40.98;94051.81;4898077;29;20067;-93
2021/03/01 10:43:58;;;;;;;3.42;1.85;;;;;;;8.09;40.74;94045.19;4897706;29;20049;-93
2021/03/01 10:46:44;;;;;;;3.08;1.77;;;;;;;7.42;41.90;94006.53;4898192;29;20056;-93
2021/03/01 10:49:17;;;;;;;;;;;;;;;7.04;42.20;94045.53;4898612;29;20052;-95
2021/03/01 10:51:44;;;;;;;5.20;2.53;;;;;;;6.83;43.62;94005.25;4898289;29;19924;-94
2021/03/01 10:54:11;;;;;;;1.88;1.05;;;;;;;6.90;43.04;94025.81;4898386;29;20056;-93
2021/03/01 10:56:38;;;;;;;3.30;2.25;;;;;;;7.07;43.99;94018.84;4898149;29;20056;-94
2021/03/01 10:59:04;;;;;;;3.97;2.60;;;;;;;7.28;45.04;93984.25;4898330;29;20056;-93
2021/03/01 11:01:32;;;;;;;9.50;2.42;;;;;;;7.62;44.23;93981.31;4898746;29;20175;-93
2021/03/01 11:03:59;;;;;;;9.52;3.95;;;;;;;8.04;43.82;94005.75;4898422;29;20053;-94
2021/03/01 11:06:25;;;;;;;3.45;2.17;;;;;;;7.98;42.61;93984.19;4898779;29;20107;-94
2021/03/01 11:08:52;;;;;;;;;;;;;;;8.10;41.43;94016.06;4898863;29;20144;-95
2021/03/01 11:11:19;;;;;;;3.80;2.58;;;;;;;7.53;43.25;93949.09;4899461;29;19930;-95
2021/03/01 11:13:45;;;;;;;;;;;;;;;8.08;42.56;94014.66;4899138;29;20052;-93
2021/03/01 11:16:11;;;;;;;4.03;1.83;;;;;;;7.88;41.88;94012.59;4898168;29;19990;-93
2021/03/01 11:18:37;;;;;;;5.45;2.33;;;;;;;7.54;41.80;93971.13;4897743;29;20060;-92
2021/03/01 11:21:04;;;;;;;;;;;;;;;8.03;42.75;94004.94;4898527;29;20515;-95
2021/03/01 11:23:30;;;;;;;4.68;2.38;;;;;;;7.97;41.34;93960.38;4898574;29;19923;-96
2021/03/01 11:25:57;;;;;;;;;;;;;;;8.81;41.23;93996.16;4898081;29;20059;-93
2021/03/01 11:28:23;;;;;;;5.63;1.95;;;;;;;8.49;42.33;93909.28;4897615;29;20370;-92
2021/03/01 11:30:50;;;;;;;6.53;2.22;;;;;;;8.99;40.98;93956.53;4896921;29;20060;-94
2021/03/01 11:33:17;;;;;;;10.10;3.72;;;;;;;8.93;41.53;93976.78;4897240;29;20048;-95
2021/03/01 11:35:43;;;;;;;5.47;2.75;;;;;;;8.43;41.10;93938.16;4897423;29;20048;-93
2021/03/01 11:38:09;;;;;;;;;;;;;;;8.37;41.43;93998.53;4897882;29;20060;-91
2021/03/01 11:40:35;;;;;;;5.80;1.80;;;;;;;7.95;42.34;93959.75;4900500;29;19930;-92
2021/03/01 11:43:02;;;;;;;;;;;;;;;8.22;42.38;93995.16;4902491;29;20049;-92
2021/03/01 11:45:30;;;;;;;3.90;2.22;;;;;;;7.82;42.42;93901.53;4897473;29;20371;-93
2021/03/01 11:48:11;;;;;;;3.60;1.80;;;;;;;8.32;42.69;93941.94;4889251;29;20127;-94
2021/03/01 11:50:37;;;;;;;5.18;2.55;;;;;;;8.43;41.91;93941.50;4893024;29;20049;-94
2021/03/01 11:53:04;;;;;;;5.60;3.15;;;;;;;7.76;42.59;93902.22;4893080;29;20053;-92
2021/03/01 11:55:30;;;;;;;5.72;3.35;;;;;;;8.10;43.30;93938.53;4893667;29;20049;-91
2021/03/01 11:57:57;;;;;;;4.13;2.65;;;;;;;7.56;43.28;93941.09;4897293;29;20053;-92
2021/03/01 12:00:24;;;;;;;;;;;;;;;8.33;43.95;93979.38;4900359;29;20060;-92
2021/03/01 12:02:50;;;;;;;3.25;2.20;;;;;;;7.81;42.26;93878.66;4899992;29;19975;-92
2021/03/01 12:05:16;;;;;;;;;;;;;;;8.21;43.71;93975.66;4901046;29;20495;-92
2021/03/01 12:07:44;;;;;;;6.55;3.33;;;;;;;7.56;44.76;93925.75;4900113;29;19924;-92
2021/03/01 12:10:11;;;;;;;3.85;2.38;;;;;;;7.68;43.99;93935.56;4900132;29;20071;-92
2021/03/01 12:12:38;;;;;;;7.60;2.55;;;;;;;7.37;46.10;93960.25;4900497;29;20044;-92
2021/03/01 12:15:06;;;;;;;6.47;3.42;;;;;;;7.06;47.26;93945.75;4881901;29;20053;-92
2021/03/01 12:17:33;;;;;;;4.65;2.88;;;;;;;7.27;47.20;93983.44;4881542;29;20188;-93
2021/03/01 12:20:00;;;;;;;7.53;4.28;;;;;;;7.12;47.40;93951.94;4881794;29;20049;-92
2021/03/01 12:22:26;;;;;;;;;;;;;;;7.38;47.67;93991.69;4882406;29;20064;-92
2021/03/01 12:24:53;;;;;;;4.47;2.67;;;;;;;7.05;48.81;93934.72;4881401;29;19934;-92
2021/03/01 12:27:19;;;;;;;;;;;;;;;7.43;47.82;93992.78;4881885;29;20065;-96
2021/03/01 12:29:47;;;;;;;4.45;2.92;;;;;;;6.76;48.65;93948.94;4881952;29;19946;-91
2021/03/01 12:35:44;;;;;;;24.65;10.18;;;;;;;7.00;48.58;93957.44;4824756;29;20088;-94
2021/03/01 12:39:07;;;;;;;60.55;21.35;;;;;;;7.26;49.05;93955.53;4843288;29;20049;-92
2021/03/01 12:41:34;;;;;;;27.88;10.15;;;;;;;7.35;48.58;93965.53;4861938;29;20053;-93
2021/03/01 12:50:54;;;;;;;7.80;2.63;;;;;;;6.81;49.39;93966.31;4790132;29;20046;-92
2021/03/01 12:53:20;;;;;;;25.33;10.30;;;;;;;6.65;48.64;93934.00;4826500;29;20150;-93
2021/03/01 12:55:47;;;;;;;5.93;3.97;;;;;;;6.91;49.10;94000.09;4846274;29;20082;-94
2021/03/01 12:58:13;;;;;;;11.10;3.70;;;;;;;6.78;49.57;93944.47;4842541;29;20124;-92
2021/03/01 13:01:15;;;;;;;11.05;5.35;;;;;;;7.24;49.25;94016.22;4840952;29;20439;-94
2021/03/01 13:03:44;;;;;;;37.90;12.07;;;;;;;6.67;51.22;94003.56;4863582;29;20201;-92
2021/03/01 13:06:11;;;;;;;8.98;4.53;;;;;;;5.84;52.63;93956.03;4881357;29;20057;-90
2021/03/01 13:08:37;;;;;;;7.93;3.50;;;;;;;6.17;54.20;94019.00;4880543;29;20057;-91
2021/03/01 13:11:03;;;;;;;;;;;;;;;6.16;53.79;94037.84;4880343;29;20517;-91
2021/03/01 13:13:48;;;;;;;9.82;4.38;;;;;;;5.97;54.48;94033.81;4880282;29;20299;-91
2021/03/01 13:16:15;;;;;;;8.13;5.37;;;;;;;5.70;55.93;94026.31;4881219;29;20064;-94